sensor_id;sensor_type;location;lat;lon;timestamp;P1;durP1;ratioP1;P2;durP2;ratioP2
7621;SDS011;3852;52.284;8.032;2022-07-01T00:02:21;5.60;;;5.10;;
7621;SDS011;3852;52.284;8.032;2022-07-01T00:04:48;7.97;;;5.20;;
7621;SDS011;3852;52.284;8.032;2022-07-01T00:07:13;6.07;;;5.10;;
7621;SDS011;3852;52.284;8.032;2022-07-01T00:09:41;5.37;;;4.50;;
7621;SDS011;3852;52.284;8.032;2022-07-01T00:12:07;6.30;;;4.23;;
7621;SDS011;3852;52.284;8.032;2022-07-01T00:14:33;5.83;;;4.37;;
7621;SDS011;3852;52.284;8.032;2022-07-01T00:16:59;4.63;;;4.23;;
7621;SDS011;3852;52.284;8.032;2022-07-01T00:19:25;4.47;;;4.07;;
7621;SDS011;3852;52.284;8.032;2022-07-01T00:21:51;4.57;;;4.17;;
7621;SDS011;3852;52.284;8.032;2022-07-01T00:24:17;5.27;;;3.90;;
7621;SDS011;3852;52.284;8.032;2022-07-01T00:26:43;4.40;;;3.97;;
7621;SDS011;3852;52.284;8.032;2022-07-01T00:29:08;5.27;;;3.80;;
7621;SDS011;3852;52.284;8.032;2022-07-01T00:31:34;7.73;;;4.57;;
7621;SDS011;3852;52.284;8.032;2022-07-01T00:34:01;5.77;;;4.20;;
7621;SDS011;3852;52.284;8.032;2022-07-01T00:36:27;4.67;;;3.70;;
7621;SDS011;3852;52.284;8.032;2022-07-01T00:38:54;6.40;;;3.97;;
7621;SDS011;3852;52.284;8.032;2022-07-01T00:41:20;4.60;;;4.17;;
7621;SDS011;3852;52.284;8.032;2022-07-01T00:43:47;5.33;;;4.17;;
7621;SDS011;3852;52.284;8.032;2022-07-01T00:46:16;5.13;;;4.50;;
7621;SDS011;3852;52.284;8.032;2022-07-01T00:48:42;6.30;;;3.97;;
7621;SDS011;3852;52.284;8.032;2022-07-01T00:51:08;4.97;;;3.90;;
7621;SDS011;3852;52.284;8.032;2022-07-01T00:53:35;6.07;;;4.63;;
7621;SDS011;3852;52.284;8.032;2022-07-01T00:56:01;4.80;;;4.13;;
7621;SDS011;3852;52.284;8.032;2022-07-01T00:58:27;6.63;;;4.80;;
7621;SDS011;3852;52.284;8.032;2022-07-01T01:00:55;4.30;;;4.00;;
7621;SDS011;3852;52.284;8.032;2022-07-01T01:03:23;4.27;;;3.87;;
7621;SDS011;3852;52.284;8.032;2022-07-01T01:05:50;5.17;;;4.23;;
7621;SDS011;3852;52.284;8.032;2022-07-01T01:08:17;7.30;;;4.03;;
7621;SDS011;3852;52.284;8.032;2022-07-01T01:10:43;8.27;;;4.27;;
7621;SDS011;3852;52.284;8.032;2022-07-01T01:13:09;6.40;;;4.70;;
7621;SDS011;3852;52.284;8.032;2022-07-01T01:15:35;5.13;;;4.23;;
7621;SDS011;3852;52.284;8.032;2022-07-01T01:18:02;7.43;;;4.30;;
7621;SDS011;3852;52.284;8.032;2022-07-01T01:20:34;6.80;;;4.00;;
7621;SDS011;3852;52.284;8.032;2022-07-01T01:23:02;5.20;;;4.53;;
7621;SDS011;3852;52.284;8.032;2022-07-01T01:25:32;6.70;;;4.30;;
7621;SDS011;3852;52.284;8.032;2022-07-01T01:27:59;5.03;;;4.20;;
7621;SDS011;3852;52.284;8.032;2022-07-01T01:30:26;8.10;;;5.37;;
7621;SDS011;3852;52.284;8.032;2022-07-01T01:32:52;8.37;;;7.10;;
7621;SDS011;3852;52.284;8.032;2022-07-01T01:35:20;11.47;;;6.83;;
7621;SDS011;3852;52.284;8.032;2022-07-01T01:37:46;9.00;;;6.40;;
7621;SDS011;3852;52.284;8.032;2022-07-01T01:40:13;6.93;;;5.80;;
7621;SDS011;3852;52.284;8.032;2022-07-01T01:42:40;7.77;;;6.07;;
7621;SDS011;3852;52.284;8.032;2022-07-01T01:45:07;6.40;;;5.60;;
7621;SDS011;3852;52.284;8.032;2022-07-01T01:47:34;8.00;;;6.00;;
7621;SDS011;3852;52.284;8.032;2022-07-01T01:50:00;8.63;;;5.93;;
7621;SDS011;3852;52.284;8.032;2022-07-01T01:52:26;6.93;;;5.83;;
7621;SDS011;3852;52.284;8.032;2022-07-01T01:54:51;5.97;;;5.37;;
7621;SDS011;3852;52.284;8.032;2022-07-01T01:57:17;5.47;;;4.83;;
7621;SDS011;3852;52.284;8.032;2022-07-01T01:59:43;7.00;;;6.07;;
7621;SDS011;3852;52.284;8.032;2022-07-01T02:02:09;9.77;;;6.27;;
7621;SDS011;3852;52.284;8.032;2022-07-01T02:04:34;7.57;;;6.03;;
7621;SDS011;3852;52.284;8.032;2022-07-01T02:07:00;8.10;;;5.93;;
7621;SDS011;3852;52.284;8.032;2022-07-01T02:09:26;11.27;;;6.60;;
7621;SDS011;3852;52.284;8.032;2022-07-01T02:11:53;7.50;;;6.63;;
7621;SDS011;3852;52.284;8.032;2022-07-01T02:14:19;7.17;;;6.47;;
7621;SDS011;3852;52.284;8.032;2022-07-01T02:16:45;8.60;;;6.40;;
7621;SDS011;3852;52.284;8.032;2022-07-01T02:19:11;9.70;;;6.43;;
7621;SDS011;3852;52.284;8.032;2022-07-01T02:21:37;7.97;;;6.23;;
7621;SDS011;3852;52.284;8.032;2022-07-01T02:24:03;10.03;;;6.73;;
7621;SDS011;3852;52.284;8.032;2022-07-01T02:26:29;9.87;;;6.73;;
7621;SDS011;3852;52.284;8.032;2022-07-01T02:28:55;7.80;;;6.43;;
7621;SDS011;3852;52.284;8.032;2022-07-01T02:31:20;8.77;;;6.90;;
7621;SDS011;3852;52.284;8.032;2022-07-01T02:33:46;9.47;;;7.43;;
7621;SDS011;3852;52.284;8.032;2022-07-01T02:36:13;9.77;;;8.50;;
7621;SDS011;3852;52.284;8.032;2022-07-01T02:38:39;11.63;;;8.97;;
7621;SDS011;3852;52.284;8.032;2022-07-01T02:41:05;10.70;;;8.30;;
7621;SDS011;3852;52.284;8.032;2022-07-01T02:43:30;12.20;;;8.70;;
7621;SDS011;3852;52.284;8.032;2022-07-01T02:45:57;12.43;;;9.40;;
7621;SDS011;3852;52.284;8.032;2022-07-01T02:48:23;11.93;;;9.60;;
7621;SDS011;3852;52.284;8.032;2022-07-01T02:50:49;11.23;;;8.73;;
7621;SDS011;3852;52.284;8.032;2022-07-01T02:53:14;15.50;;;10.93;;
7621;SDS011;3852;52.284;8.032;2022-07-01T02:55:40;13.87;;;10.50;;
7621;SDS011;3852;52.284;8.032;2022-07-01T02:58:06;15.57;;;11.83;;
7621;SDS011;3852;52.284;8.032;2022-07-01T03:00:32;13.77;;;11.10;;
7621;SDS011;3852;52.284;8.032;2022-07-01T03:02:58;16.30;;;12.07;;
7621;SDS011;3852;52.284;8.032;2022-07-01T03:05:24;17.73;;;12.53;;
7621;SDS011;3852;52.284;8.032;2022-07-01T03:07:50;15.93;;;11.23;;
7621;SDS011;3852;52.284;8.032;2022-07-01T03:10:17;19.70;;;13.80;;
7621;SDS011;3852;52.284;8.032;2022-07-01T03:12:43;19.20;;;12.93;;
7621;SDS011;3852;52.284;8.032;2022-07-01T03:15:10;19.50;;;12.93;;
7621;SDS011;3852;52.284;8.032;2022-07-01T03:17:39;17.67;;;13.37;;
7621;SDS011;3852;52.284;8.032;2022-07-01T03:20:09;16.83;;;12.73;;
7621;SDS011;3852;52.284;8.032;2022-07-01T03:22:40;17.63;;;13.03;;
7621;SDS011;3852;52.284;8.032;2022-07-01T03:25:08;17.93;;;13.17;;
7621;SDS011;3852;52.284;8.032;2022-07-01T03:27:34;17.47;;;12.23;;
7621;SDS011;3852;52.284;8.032;2022-07-01T03:30:01;18.30;;;12.87;;
7621;SDS011;3852;52.284;8.032;2022-07-01T03:32:29;19.63;;;13.03;;
7621;SDS011;3852;52.284;8.032;2022-07-01T03:34:54;19.60;;;13.57;;
7621;SDS011;3852;52.284;8.032;2022-07-01T03:37:21;20.87;;;14.07;;
7621;SDS011;3852;52.284;8.032;2022-07-01T03:39:48;20.90;;;14.13;;
7621;SDS011;3852;52.284;8.032;2022-07-01T03:42:14;23.03;;;14.93;;
7621;SDS011;3852;52.284;8.032;2022-07-01T03:44:41;18.47;;;12.73;;
7621;SDS011;3852;52.284;8.032;2022-07-01T03:47:09;20.67;;;14.23;;
7621;SDS011;3852;52.284;8.032;2022-07-01T03:49:35;22.20;;;15.07;;
7621;SDS011;3852;52.284;8.032;2022-07-01T03:52:02;20.10;;;15.10;;
7621;SDS011;3852;52.284;8.032;2022-07-01T03:54:29;23.60;;;15.33;;
7621;SDS011;3852;52.284;8.032;2022-07-01T03:59:28;21.13;;;15.17;;
7621;SDS011;3852;52.284;8.032;2022-07-01T04:01:57;22.47;;;15.17;;
7621;SDS011;3852;52.284;8.032;2022-07-01T04:04:24;19.90;;;14.57;;
7621;SDS011;3852;52.284;8.032;2022-07-01T04:06:55;23.37;;;15.53;;
7621;SDS011;3852;52.284;8.032;2022-07-01T04:09:23;27.23;;;17.33;;
7621;SDS011;3852;52.284;8.032;2022-07-01T04:11:50;26.00;;;17.17;;
7621;SDS011;3852;52.284;8.032;2022-07-01T04:14:17;26.90;;;18.27;;
7621;SDS011;3852;52.284;8.032;2022-07-01T04:16:43;27.90;;;18.07;;
7621;SDS011;3852;52.284;8.032;2022-07-01T04:19:10;25.80;;;17.63;;
7621;SDS011;3852;52.284;8.032;2022-07-01T04:21:37;27.97;;;19.03;;
7621;SDS011;3852;52.284;8.032;2022-07-01T04:24:21;31.07;;;19.37;;
7621;SDS011;3852;52.284;8.032;2022-07-01T04:26:50;30.37;;;20.07;;
7621;SDS011;3852;52.284;8.032;2022-07-01T04:29:17;33.27;;;20.53;;
7621;SDS011;3852;52.284;8.032;2022-07-01T04:31:44;29.07;;;18.40;;
7621;SDS011;3852;52.284;8.032;2022-07-01T04:34:10;32.93;;;20.07;;
7621;SDS011;3852;52.284;8.032;2022-07-01T04:36:37;33.27;;;20.30;;
7621;SDS011;3852;52.284;8.032;2022-07-01T04:39:03;35.10;;;21.07;;
7621;SDS011;3852;52.284;8.032;2022-07-01T04:41:30;34.73;;;21.33;;
7621;SDS011;3852;52.284;8.032;2022-07-01T04:44:15;36.33;;;20.53;;
7621;SDS011;3852;52.284;8.032;2022-07-01T04:46:42;34.60;;;21.33;;
7621;SDS011;3852;52.284;8.032;2022-07-01T04:49:08;37.17;;;21.93;;
7621;SDS011;3852;52.284;8.032;2022-07-01T04:51:34;32.20;;;20.90;;
7621;SDS011;3852;52.284;8.032;2022-07-01T04:54:02;32.60;;;21.33;;
7621;SDS011;3852;52.284;8.032;2022-07-01T04:56:30;39.27;;;23.33;;
7621;SDS011;3852;52.284;8.032;2022-07-01T04:58:56;42.07;;;24.30;;
7621;SDS011;3852;52.284;8.032;2022-07-01T05:01:22;36.23;;;22.03;;
7621;SDS011;3852;52.284;8.032;2022-07-01T05:03:48;41.67;;;24.87;;
7621;SDS011;3852;52.284;8.032;2022-07-01T05:06:14;36.53;;;22.87;;
7621;SDS011;3852;52.284;8.032;2022-07-01T05:08:40;46.83;;;26.03;;
7621;SDS011;3852;52.284;8.032;2022-07-01T05:11:06;45.13;;;24.93;;
7621;SDS011;3852;52.284;8.032;2022-07-01T05:13:32;43.57;;;25.13;;
7621;SDS011;3852;52.284;8.032;2022-07-01T05:16:00;44.73;;;25.93;;
7621;SDS011;3852;52.284;8.032;2022-07-01T05:18:27;44.67;;;25.03;;
7621;SDS011;3852;52.284;8.032;2022-07-01T05:21:12;56.87;;;29.80;;
7621;SDS011;3852;52.284;8.032;2022-07-01T05:23:57;47.80;;;27.70;;
7621;SDS011;3852;52.284;8.032;2022-07-01T05:26:23;50.57;;;27.20;;
7621;SDS011;3852;52.284;8.032;2022-07-01T05:28:51;47.63;;;27.00;;
7621;SDS011;3852;52.284;8.032;2022-07-01T05:31:20;49.67;;;29.03;;
7621;SDS011;3852;52.284;8.032;2022-07-01T05:33:46;47.97;;;27.30;;
7621;SDS011;3852;52.284;8.032;2022-07-01T05:36:12;52.23;;;29.73;;
7621;SDS011;3852;52.284;8.032;2022-07-01T05:38:39;46.70;;;27.70;;
7621;SDS011;3852;52.284;8.032;2022-07-01T05:41:05;43.40;;;26.10;;
7621;SDS011;3852;52.284;8.032;2022-07-01T05:43:32;52.33;;;29.27;;
7621;SDS011;3852;52.284;8.032;2022-07-01T05:45:59;48.63;;;30.27;;
7621;SDS011;3852;52.284;8.032;2022-07-01T05:48:25;51.57;;;30.07;;
7621;SDS011;3852;52.284;8.032;2022-07-01T05:50:51;48.70;;;29.10;;
7621;SDS011;3852;52.284;8.032;2022-07-01T05:53:17;50.83;;;29.93;;
7621;SDS011;3852;52.284;8.032;2022-07-01T05:55:44;50.73;;;29.57;;
7621;SDS011;3852;52.284;8.032;2022-07-01T05:58:10;52.37;;;29.77;;
7621;SDS011;3852;52.284;8.032;2022-07-01T06:00:36;46.97;;;29.00;;
7621;SDS011;3852;52.284;8.032;2022-07-01T06:03:06;52.00;;;29.53;;
7621;SDS011;3852;52.284;8.032;2022-07-01T06:05:36;48.27;;;29.27;;
7621;SDS011;3852;52.284;8.032;2022-07-01T06:08:03;48.13;;;28.97;;
7621;SDS011;3852;52.284;8.032;2022-07-01T06:10:30;52.30;;;30.27;;
7621;SDS011;3852;52.284;8.032;2022-07-01T06:12:57;57.30;;;32.07;;
7621;SDS011;3852;52.284;8.032;2022-07-01T06:15:25;58.30;;;31.53;;
7621;SDS011;3852;52.284;8.032;2022-07-01T06:17:51;57.97;;;32.13;;
7621;SDS011;3852;52.284;8.032;2022-07-01T06:20:18;55.83;;;31.80;;
7621;SDS011;3852;52.284;8.032;2022-07-01T06:22:44;50.87;;;30.17;;
7621;SDS011;3852;52.284;8.032;2022-07-01T06:25:10;63.33;;;33.60;;
7621;SDS011;3852;52.284;8.032;2022-07-01T06:27:40;58.70;;;32.10;;
7621;SDS011;3852;52.284;8.032;2022-07-01T06:30:08;54.90;;;31.47;;
7621;SDS011;3852;52.284;8.032;2022-07-01T06:32:35;54.57;;;30.17;;
7621;SDS011;3852;52.284;8.032;2022-07-01T06:35:01;55.57;;;30.97;;
7621;SDS011;3852;52.284;8.032;2022-07-01T06:37:28;57.53;;;32.17;;
7621;SDS011;3852;52.284;8.032;2022-07-01T06:39:56;54.03;;;29.63;;
7621;SDS011;3852;52.284;8.032;2022-07-01T06:42:22;59.90;;;31.83;;
7621;SDS011;3852;52.284;8.032;2022-07-01T06:44:48;56.40;;;30.40;;
7621;SDS011;3852;52.284;8.032;2022-07-01T06:47:14;59.30;;;30.80;;
7621;SDS011;3852;52.284;8.032;2022-07-01T06:49:39;59.10;;;31.63;;
7621;SDS011;3852;52.284;8.032;2022-07-01T06:52:05;54.83;;;29.83;;
7621;SDS011;3852;52.284;8.032;2022-07-01T06:54:31;51.57;;;28.80;;
7621;SDS011;3852;52.284;8.032;2022-07-01T06:56:57;52.37;;;29.27;;
7621;SDS011;3852;52.284;8.032;2022-07-01T06:59:23;52.73;;;29.20;;
7621;SDS011;3852;52.284;8.032;2022-07-01T07:01:49;49.83;;;29.23;;
7621;SDS011;3852;52.284;8.032;2022-07-01T07:04:15;47.77;;;27.87;;
7621;SDS011;3852;52.284;8.032;2022-07-01T07:06:41;49.67;;;28.70;;
7621;SDS011;3852;52.284;8.032;2022-07-01T07:09:07;47.77;;;27.90;;
7621;SDS011;3852;52.284;8.032;2022-07-01T07:11:33;47.00;;;28.30;;
7621;SDS011;3852;52.284;8.032;2022-07-01T07:14:02;51.70;;;28.53;;
7621;SDS011;3852;52.284;8.032;2022-07-01T07:16:28;50.60;;;28.60;;
7621;SDS011;3852;52.284;8.032;2022-07-01T07:18:53;44.90;;;27.60;;
7621;SDS011;3852;52.284;8.032;2022-07-01T07:21:19;46.10;;;27.50;;
7621;SDS011;3852;52.284;8.032;2022-07-01T07:23:45;43.07;;;26.13;;
7621;SDS011;3852;52.284;8.032;2022-07-01T07:26:11;44.17;;;26.93;;
7621;SDS011;3852;52.284;8.032;2022-07-01T07:28:37;40.80;;;24.80;;
7621;SDS011;3852;52.284;8.032;2022-07-01T07:31:03;41.80;;;25.90;;
7621;SDS011;3852;52.284;8.032;2022-07-01T07:33:29;37.30;;;24.10;;
7621;SDS011;3852;52.284;8.032;2022-07-01T07:35:55;33.60;;;22.60;;
7621;SDS011;3852;52.284;8.032;2022-07-01T07:38:20;32.83;;;22.43;;
7621;SDS011;3852;52.284;8.032;2022-07-01T07:40:47;32.10;;;21.93;;
7621;SDS011;3852;52.284;8.032;2022-07-01T07:43:13;29.00;;;20.63;;
7621;SDS011;3852;52.284;8.032;2022-07-01T07:45:39;27.40;;;20.53;;
7621;SDS011;3852;52.284;8.032;2022-07-01T07:48:05;28.73;;;19.27;;
7621;SDS011;3852;52.284;8.032;2022-07-01T07:50:31;23.87;;;18.80;;
7621;SDS011;3852;52.284;8.032;2022-07-01T07:52:57;22.87;;;17.67;;
7621;SDS011;3852;52.284;8.032;2022-07-01T07:55:24;24.60;;;17.57;;
7621;SDS011;3852;52.284;8.032;2022-07-01T07:57:50;22.40;;;17.90;;
7621;SDS011;3852;52.284;8.032;2022-07-01T08:00:16;22.33;;;17.97;;
7621;SDS011;3852;52.284;8.032;2022-07-01T08:02:42;23.17;;;17.40;;
7621;SDS011;3852;52.284;8.032;2022-07-01T08:05:09;26.70;;;20.73;;
7621;SDS011;3852;52.284;8.032;2022-07-01T08:07:36;24.10;;;17.27;;
7621;SDS011;3852;52.284;8.032;2022-07-01T08:10:04;19.47;;;15.93;;
7621;SDS011;3852;52.284;8.032;2022-07-01T08:12:32;20.33;;;15.77;;
7621;SDS011;3852;52.284;8.032;2022-07-01T08:14:58;18.77;;;15.47;;
7621;SDS011;3852;52.284;8.032;2022-07-01T08:17:24;20.10;;;15.97;;
7621;SDS011;3852;52.284;8.032;2022-07-01T08:19:50;19.13;;;16.03;;
7621;SDS011;3852;52.284;8.032;2022-07-01T08:22:16;20.70;;;15.87;;
7621;SDS011;3852;52.284;8.032;2022-07-01T08:24:42;19.03;;;16.50;;
7621;SDS011;3852;52.284;8.032;2022-07-01T08:27:07;20.47;;;15.37;;
7621;SDS011;3852;52.284;8.032;2022-07-01T08:29:33;17.97;;;14.17;;
7621;SDS011;3852;52.284;8.032;2022-07-01T08:31:59;17.73;;;13.53;;
7621;SDS011;3852;52.284;8.032;2022-07-01T08:34:25;16.73;;;14.70;;
7621;SDS011;3852;52.284;8.032;2022-07-01T08:36:51;15.10;;;13.07;;
7621;SDS011;3852;52.284;8.032;2022-07-01T08:39:17;15.07;;;13.57;;
7621;SDS011;3852;52.284;8.032;2022-07-01T08:41:42;17.57;;;14.43;;
7621;SDS011;3852;52.284;8.032;2022-07-01T08:44:08;21.57;;;14.23;;
7621;SDS011;3852;52.284;8.032;2022-07-01T08:46:35;15.97;;;12.30;;
7621;SDS011;3852;52.284;8.032;2022-07-01T08:49:01;16.53;;;13.73;;
7621;SDS011;3852;52.284;8.032;2022-07-01T08:51:28;15.77;;;14.07;;
7621;SDS011;3852;52.284;8.032;2022-07-01T08:53:53;15.33;;;13.57;;
7621;SDS011;3852;52.284;8.032;2022-07-01T08:56:19;12.37;;;11.13;;
7621;SDS011;3852;52.284;8.032;2022-07-01T08:59:04;12.27;;;10.93;;
7621;SDS011;3852;52.284;8.032;2022-07-01T09:01:32;12.30;;;10.90;;
7621;SDS011;3852;52.284;8.032;2022-07-01T09:04:17;14.17;;;12.30;;
7621;SDS011;3852;52.284;8.032;2022-07-01T09:06:45;12.90;;;11.50;;
7621;SDS011;3852;52.284;8.032;2022-07-01T09:11:49;13.53;;;11.40;;
7621;SDS011;3852;52.284;8.032;2022-07-01T09:14:23;13.20;;;11.80;;
7621;SDS011;3852;52.284;8.032;2022-07-01T09:16:52;14.23;;;11.93;;
7621;SDS011;3852;52.284;8.032;2022-07-01T09:19:21;12.87;;;11.43;;
7621;SDS011;3852;52.284;8.032;2022-07-01T09:21:51;13.10;;;11.53;;
7621;SDS011;3852;52.284;8.032;2022-07-01T09:24:25;13.07;;;10.67;;
7621;SDS011;3852;52.284;8.032;2022-07-01T09:29:51;11.50;;;10.40;;
7621;SDS011;3852;52.284;8.032;2022-07-01T09:32:18;14.17;;;10.70;;
7621;SDS011;3852;52.284;8.032;2022-07-01T09:34:50;9.47;;;7.43;;
7621;SDS011;3852;52.284;8.032;2022-07-01T09:37:18;9.03;;;7.60;;
7621;SDS011;3852;52.284;8.032;2022-07-01T09:39:48;6.60;;;5.60;;
7621;SDS011;3852;52.284;8.032;2022-07-01T09:42:24;6.43;;;5.83;;
7621;SDS011;3852;52.284;8.032;2022-07-01T09:44:55;6.40;;;5.47;;
7621;SDS011;3852;52.284;8.032;2022-07-01T09:47:33;6.90;;;5.97;;
7621;SDS011;3852;52.284;8.032;2022-07-01T09:50:02;6.60;;;5.50;;
7621;SDS011;3852;52.284;8.032;2022-07-01T09:52:29;7.53;;;5.50;;
7621;SDS011;3852;52.284;8.032;2022-07-01T09:54:55;7.97;;;5.50;;
7621;SDS011;3852;52.284;8.032;2022-07-01T09:57:21;6.00;;;5.40;;
7621;SDS011;3852;52.284;8.032;2022-07-01T09:59:48;8.23;;;5.53;;
7621;SDS011;3852;52.284;8.032;2022-07-01T10:02:15;5.90;;;5.30;;
7621;SDS011;3852;52.284;8.032;2022-07-01T10:05:05;7.17;;;6.00;;
7621;SDS011;3852;52.284;8.032;2022-07-01T10:13:35;7.07;;;5.57;;
7621;SDS011;3852;52.284;8.032;2022-07-01T10:16:02;6.57;;;5.70;;
7621;SDS011;3852;52.284;8.032;2022-07-01T10:18:29;6.83;;;5.63;;
7621;SDS011;3852;52.284;8.032;2022-07-01T10:20:55;6.80;;;6.10;;
7621;SDS011;3852;52.284;8.032;2022-07-01T10:23:24;7.03;;;5.93;;
7621;SDS011;3852;52.284;8.032;2022-07-01T10:26:01;6.90;;;6.07;;
7621;SDS011;3852;52.284;8.032;2022-07-01T10:31:18;6.93;;;5.73;;
7621;SDS011;3852;52.284;8.032;2022-07-01T10:43:57;6.93;;;4.80;;
7621;SDS011;3852;52.284;8.032;2022-07-01T10:49:12;7.07;;;4.20;;
7621;SDS011;3852;52.284;8.032;2022-07-01T10:51:42;4.70;;;4.03;;
7621;SDS011;3852;52.284;8.032;2022-07-01T10:59:46;5.37;;;3.70;;
7621;SDS011;3852;52.284;8.032;2022-07-01T11:04:47;5.40;;;3.60;;
7621;SDS011;3852;52.284;8.032;2022-07-01T11:07:14;4.67;;;3.27;;
7621;SDS011;3852;52.284;8.032;2022-07-01T11:09:40;4.27;;;3.37;;
7621;SDS011;3852;52.284;8.032;2022-07-01T11:12:06;6.13;;;3.77;;
7621;SDS011;3852;52.284;8.032;2022-07-01T11:14:34;3.83;;;3.43;;
7621;SDS011;3852;52.284;8.032;2022-07-01T11:17:05;3.43;;;3.00;;
7621;SDS011;3852;52.284;8.032;2022-07-01T11:19:32;3.20;;;2.93;;
7621;SDS011;3852;52.284;8.032;2022-07-01T11:21:59;5.07;;;3.00;;
7621;SDS011;3852;52.284;8.032;2022-07-01T11:24:25;3.40;;;2.30;;
7621;SDS011;3852;52.284;8.032;2022-07-01T11:26:54;2.50;;;2.30;;
7621;SDS011;3852;52.284;8.032;2022-07-01T11:29:28;2.10;;;2.00;;
7621;SDS011;3852;52.284;8.032;2022-07-01T11:31:54;2.10;;;2.00;;
7621;SDS011;3852;52.284;8.032;2022-07-01T11:34:20;3.77;;;2.10;;
7621;SDS011;3852;52.284;8.032;2022-07-01T11:36:46;2.00;;;1.90;;
7621;SDS011;3852;52.284;8.032;2022-07-01T11:39:32;2.10;;;2.00;;
7621;SDS011;3852;52.284;8.032;2022-07-01T11:42:01;2.53;;;2.07;;
7621;SDS011;3852;52.284;8.032;2022-07-01T11:44:52;2.23;;;2.03;;
7621;SDS011;3852;52.284;8.032;2022-07-01T11:47:24;2.73;;;2.20;;
7621;SDS011;3852;52.284;8.032;2022-07-01T11:49:52;2.40;;;2.30;;
7621;SDS011;3852;52.284;8.032;2022-07-01T11:52:19;2.90;;;2.37;;
7621;SDS011;3852;52.284;8.032;2022-07-01T11:54:48;3.60;;;2.87;;
7621;SDS011;3852;52.284;8.032;2022-07-01T11:57:20;2.73;;;2.53;;
7621;SDS011;3852;52.284;8.032;2022-07-01T11:59:52;3.67;;;2.70;;
7621;SDS011;3852;52.284;8.032;2022-07-01T12:02:21;3.83;;;2.70;;
7621;SDS011;3852;52.284;8.032;2022-07-01T12:04:49;4.17;;;2.30;;
7621;SDS011;3852;52.284;8.032;2022-07-01T12:07:19;2.43;;;2.20;;
7621;SDS011;3852;52.284;8.032;2022-07-01T12:09:49;4.70;;;2.77;;
7621;SDS011;3852;52.284;8.032;2022-07-01T12:12:19;2.50;;;2.30;;
7621;SDS011;3852;52.284;8.032;2022-07-01T12:14:54;3.40;;;2.10;;
7621;SDS011;3852;52.284;8.032;2022-07-01T12:17:22;2.67;;;2.20;;
7621;SDS011;3852;52.284;8.032;2022-07-01T12:19:49;2.90;;;2.10;;
7621;SDS011;3852;52.284;8.032;2022-07-01T12:24:46;1.97;;;1.87;;
7621;SDS011;3852;52.284;8.032;2022-07-01T12:27:13;2.43;;;2.27;;
7621;SDS011;3852;52.284;8.032;2022-07-01T12:32:09;2.50;;;2.30;;
7621;SDS011;3852;52.284;8.032;2022-07-01T12:37:20;2.13;;;1.90;;
7621;SDS011;3852;52.284;8.032;2022-07-01T12:39:52;3.10;;;2.30;;
7621;SDS011;3852;52.284;8.032;2022-07-01T12:44:53;2.13;;;2.03;;
7621;SDS011;3852;52.284;8.032;2022-07-01T12:47:25;2.30;;;2.20;;
7621;SDS011;3852;52.284;8.032;2022-07-01T12:52:35;2.33;;;2.00;;
7621;SDS011;3852;52.284;8.032;2022-07-01T12:55:16;2.60;;;2.37;;
7621;SDS011;3852;52.284;8.032;2022-07-01T12:57:49;2.43;;;2.00;;
7621;SDS011;3852;52.284;8.032;2022-07-01T13:00:21;2.40;;;2.17;;
7621;SDS011;3852;52.284;8.032;2022-07-01T13:02:52;2.87;;;2.33;;
7621;SDS011;3852;52.284;8.032;2022-07-01T13:05:19;3.53;;;2.60;;
7621;SDS011;3852;52.284;8.032;2022-07-01T13:07:46;2.77;;;2.07;;
7621;SDS011;3852;52.284;8.032;2022-07-01T13:10:12;2.73;;;2.20;;
7621;SDS011;3852;52.284;8.032;2022-07-01T13:12:40;3.10;;;2.17;;
7621;SDS011;3852;52.284;8.032;2022-07-01T13:15:06;2.27;;;2.00;;
7621;SDS011;3852;52.284;8.032;2022-07-01T13:17:33;2.00;;;1.80;;
7621;SDS011;3852;52.284;8.032;2022-07-01T13:19:58;2.53;;;2.10;;
7621;SDS011;3852;52.284;8.032;2022-07-01T13:22:24;2.60;;;2.30;;
7621;SDS011;3852;52.284;8.032;2022-07-01T13:24:50;2.27;;;2.13;;
7621;SDS011;3852;52.284;8.032;2022-07-01T13:27:16;3.17;;;2.10;;
7621;SDS011;3852;52.284;8.032;2022-07-01T13:29:42;2.77;;;2.53;;
7621;SDS011;3852;52.284;8.032;2022-07-01T13:32:08;2.63;;;2.10;;
7621;SDS011;3852;52.284;8.032;2022-07-01T13:34:34;2.10;;;2.00;;
7621;SDS011;3852;52.284;8.032;2022-07-01T13:37:00;4.20;;;2.10;;
7621;SDS011;3852;52.284;8.032;2022-07-01T13:39:29;2.43;;;2.23;;
7621;SDS011;3852;52.284;8.032;2022-07-01T13:41:55;2.57;;;2.17;;
7621;SDS011;3852;52.284;8.032;2022-07-01T13:44:21;2.93;;;1.93;;
7621;SDS011;3852;52.284;8.032;2022-07-01T13:46:47;3.17;;;2.00;;
7621;SDS011;3852;52.284;8.032;2022-07-01T13:49:13;2.63;;;1.67;;
7621;SDS011;3852;52.284;8.032;2022-07-01T13:51:39;1.90;;;1.80;;
7621;SDS011;3852;52.284;8.032;2022-07-01T13:54:05;1.70;;;1.60;;
7621;SDS011;3852;52.284;8.032;2022-07-01T13:56:31;2.10;;;1.50;;
7621;SDS011;3852;52.284;8.032;2022-07-01T13:58:57;2.50;;;1.67;;
7621;SDS011;3852;52.284;8.032;2022-07-01T14:01:23;2.03;;;1.70;;
7621;SDS011;3852;52.284;8.032;2022-07-01T14:03:49;1.83;;;1.67;;
7621;SDS011;3852;52.284;8.032;2022-07-01T14:06:16;1.70;;;1.60;;
7621;SDS011;3852;52.284;8.032;2022-07-01T14:08:43;2.33;;;1.50;;
7621;SDS011;3852;52.284;8.032;2022-07-01T14:11:09;1.80;;;1.70;;
7621;SDS011;3852;52.284;8.032;2022-07-01T14:13:35;1.50;;;1.40;;
7621;SDS011;3852;52.284;8.032;2022-07-01T14:16:01;2.43;;;1.50;;
7621;SDS011;3852;52.284;8.032;2022-07-01T14:18:31;1.67;;;1.30;;
7621;SDS011;3852;52.284;8.032;2022-07-01T14:21:00;2.03;;;1.33;;
7621;SDS011;3852;52.284;8.032;2022-07-01T14:23:28;1.47;;;1.30;;
7621;SDS011;3852;52.284;8.032;2022-07-01T14:25:54;1.43;;;1.33;;
7621;SDS011;3852;52.284;8.032;2022-07-01T14:28:20;1.83;;;1.50;;
7621;SDS011;3852;52.284;8.032;2022-07-01T14:30:46;2.37;;;1.20;;
7621;SDS011;3852;52.284;8.032;2022-07-01T14:33:12;2.33;;;1.20;;
7621;SDS011;3852;52.284;8.032;2022-07-01T14:35:39;1.40;;;1.30;;
7621;SDS011;3852;52.284;8.032;2022-07-01T14:38:05;2.37;;;1.30;;
7621;SDS011;3852;52.284;8.032;2022-07-01T14:40:31;1.43;;;1.20;;
7621;SDS011;3852;52.284;8.032;2022-07-01T14:42:57;2.33;;;1.20;;
7621;SDS011;3852;52.284;8.032;2022-07-01T14:45:24;1.30;;;1.10;;
7621;SDS011;3852;52.284;8.032;2022-07-01T14:47:50;2.17;;;1.37;;
7621;SDS011;3852;52.284;8.032;2022-07-01T14:50:16;2.03;;;1.00;;
7621;SDS011;3852;52.284;8.032;2022-07-01T14:52:42;1.37;;;1.13;;
7621;SDS011;3852;52.284;8.032;2022-07-01T14:55:08;1.17;;;1.03;;
7621;SDS011;3852;52.284;8.032;2022-07-01T14:57:37;1.93;;;1.10;;
7621;SDS011;3852;52.284;8.032;2022-07-01T15:00:03;1.40;;;1.20;;
7621;SDS011;3852;52.284;8.032;2022-07-01T15:02:31;1.53;;;1.10;;
7621;SDS011;3852;52.284;8.032;2022-07-01T15:04:57;2.10;;;1.00;;
7621;SDS011;3852;52.284;8.032;2022-07-01T15:07:22;1.67;;;1.00;;
7621;SDS011;3852;52.284;8.032;2022-07-01T15:09:49;1.90;;;1.00;;
7621;SDS011;3852;52.284;8.032;2022-07-01T15:12:16;1.07;;;1.07;;
7621;SDS011;3852;52.284;8.032;2022-07-01T15:14:43;1.70;;;0.90;;
7621;SDS011;3852;52.284;8.032;2022-07-01T15:17:09;1.00;;;0.90;;
7621;SDS011;3852;52.284;8.032;2022-07-01T15:19:35;1.87;;;1.10;;
7621;SDS011;3852;52.284;8.032;2022-07-01T15:22:03;0.93;;;0.90;;
7621;SDS011;3852;52.284;8.032;2022-07-01T15:24:29;2.20;;;1.13;;
7621;SDS011;3852;52.284;8.032;2022-07-01T15:26:55;0.73;;;0.73;;
7621;SDS011;3852;52.284;8.032;2022-07-01T15:29:21;0.90;;;0.90;;
7621;SDS011;3852;52.284;8.032;2022-07-01T15:31:47;2.73;;;1.00;;
7621;SDS011;3852;52.284;8.032;2022-07-01T15:34:13;1.30;;;1.13;;
7621;SDS011;3852;52.284;8.032;2022-07-01T15:36:41;1.90;;;1.10;;
7621;SDS011;3852;52.284;8.032;2022-07-01T15:39:08;1.57;;;1.00;;
7621;SDS011;3852;52.284;8.032;2022-07-01T15:41:34;2.37;;;1.17;;
7621;SDS011;3852;52.284;8.032;2022-07-01T15:44:00;2.40;;;1.20;;
7621;SDS011;3852;52.284;8.032;2022-07-01T15:46:28;2.40;;;2.20;;
7621;SDS011;3852;52.284;8.032;2022-07-01T15:48:54;0.90;;;0.90;;
7621;SDS011;3852;52.284;8.032;2022-07-01T15:51:19;1.03;;;0.90;;
7621;SDS011;3852;52.284;8.032;2022-07-01T15:53:45;1.23;;;0.90;;
7621;SDS011;3852;52.284;8.032;2022-07-01T15:56:11;1.80;;;1.00;;